<?xml version='1.0' encoding='UTF-8'?><gpx version="1.1" creator="JPX - https://github.com/jenetics/jpx" xmlns="http://www.topografix.com/GPX/1/1"><trk><trkseg><trkpt lat="55.3856497760349" lon="37.4569699994645"><ele>168.0</ele><time>2026-05-02T08:16:20.999Z</time></trkpt><trkpt lat="55.38558448785183" lon="37.45695927924884"><ele>168.0</ele><time>2026-05-02T08:19:31.999Z</time></trkpt><trkpt lat="55.38551021571282" lon="37.45695094853901"><ele>168.0</ele><time>2026-05-02T08:19:32.999Z</time></trkpt><trkpt lat="55.3854360573841" lon="37.45690098041182"><ele>168.0</ele><time>2026-05-02T08:19:33.999Z</time></trkpt><trkpt lat="55.385360013133464" lon="37.456834344992195"><ele>168.0</ele><time>2026-05-02T08:19:34.999Z</time></trkpt><trkpt lat="55.385300170166325" lon="37.45673843188556"><ele>168.0</ele><time>2026-05-02T08:19:37.999Z</time></trkpt><trkpt lat="55.3852796690559" lon="37.45661633825704"><ele>168.66666666666666</ele><time>2026-05-02T08:19:39.999Z</time></trkpt><trkpt lat="55.38530236594913" lon="37.4564994875805"><ele>169.33333333333334</ele><time>2026-05-02T08:19:42.999Z</time></trkpt><trkpt lat="55.385325794733475" lon="37.456356875017214"><ele>170.0</ele><time>2026-05-02T08:19:45.999Z</time></trkpt><trkpt lat="55.3852599488802" lon="37.45633851102056"><ele>170.66666666666669</ele><time>2026-05-02T08:19:48.999Z</time></trkpt><trkpt lat="55.385217525475234" lon="37.45619134483913"><ele>171.33333333333334</ele><time>2026-05-02T08:19:51.999Z</time></trkpt><trkpt lat="55.38519147133761" lon="37.456037299187315"><ele>172.0</ele><time>2026-05-02T08:19:53.999Z</time></trkpt><trkpt lat="55.38513472921641" lon="37.45595807221252"><ele>172.2</ele><time>2026-05-02T08:20:37.999Z</time></trkpt><trkpt lat="55.385073354922305" lon="37.45591601243951"><ele>172.39999999999998</ele><time>2026-05-02T08:23:20Z</time></trkpt><trkpt lat="55.38498860148729" lon="37.45599491473286"><ele>172.60000000000002</ele><time>2026-05-02T08:23:22Z</time></trkpt><trkpt lat="55.384868066581035" lon="37.456036945016685"><ele>172.8</ele><time>2026-05-02T08:23:24Z</time></trkpt><trkpt lat="55.384768010420444" lon="37.456028999877915"><ele>173.0</ele><time>2026-05-02T08:23:25Z</time></trkpt><trkpt lat="55.38463197554842" lon="37.456016367142"><ele>175.0</ele><time>2026-05-02T08:23:26Z</time></trkpt><trkpt lat="55.38453137439855" lon="37.45598079768228"><ele>175.0</ele><time>2026-05-02T08:23:27Z</time></trkpt><trkpt lat="55.38445380761394" lon="37.45593161200156"><ele>175.0</ele><time>2026-05-02T08:23:28Z</time></trkpt><trkpt lat="55.38438947114714" lon="37.45588147245712"><ele>175.0</ele><time>2026-05-02T08:23:29Z</time></trkpt></trkseg></trk></gpx>